Time;durP1;ratioP1;P1;durP2;ratioP2;P2;SDS_P1;SDS_P2;PMS_P1;PMS_P2;Temp;Humidity;BMP_temperature;BMP_pressure;BME280_temperature;BME280_humidity;BME280_pressure;Samples;Min_cycle;Max_cycle;Signal;HPM_P1;HPM_P2
2023/11/08 00:00:07;;;;;;;7.47;2.78;;;;;;;;;;10297483;28;20072;-58
2023/11/08 00:05:13;;;;;;;6.47;3.05;;;;;;;;;;10297512;28;20080;-56
2023/11/08 00:10:12;;;;;;;4.78;2.30;;;;;;;;;;10296864;28;20048;-52
2023/11/08 00:15:11;;;;;;;6.05;3.15;;;;;;;;;;10296776;28;20076;-56
2023/11/08 00:20:11;;;;;;;6.60;3.13;;;;;;;;;;10296257;28;20068;-57
2023/11/08 00:25:11;;;;;;;7.82;2.92;;;;;;;;;;10296074;28;20085;-58
2023/11/08 00:30:10;;;;;;;3.75;2.42;;;;;;;;;;10296482;28;20083;-59
2023/11/08 00:35:09;;;;;;;5.80;3.10;;;;;;;;;;10296278;28;20080;-58
2023/11/08 00:40:08;;;;;;;8.88;3.45;;;;;;;;;;10294961;28;20064;-58
2023/11/08 00:45:08;;;;;;;9.60;3.20;;;;;;;;;;10294749;28;20079;-57
2023/11/08 00:50:07;;;;;;;9.65;3.08;;;;;;;;;;10294304;28;20143;-58
2023/11/08 00:55:06;;;;;;;6.13;3.30;;;;;;;;;;10295702;28;20092;-59
2023/11/08 01:00:07;;;;;;;8.60;3.20;;;;;;;;;;10294693;28;20072;-58
2023/11/08 01:05:09;;;;;;;8.45;3.22;;;;;;;;;;10295068;28;20080;-58
2023/11/08 01:10:08;;;;;;;10.57;2.97;;;;;;;;;;10294926;28;20083;-56
2023/11/08 01:15:08;;;;;;;9.70;3.08;;;;;;;;;;10293221;28;20092;-55
2023/11/08 01:20:09;;;;;;;7.82;3.35;;;;;;;;;;10294402;28;20724;-57
2023/11/08 01:25:08;;;;;;;9.63;3.42;;;;;;;;;;10294273;28;20605;-57
2023/11/08 01:30:07;;;;;;;6.93;3.15;;;;;;;;;;10292889;28;20461;-59
2023/11/08 01:35:06;;;;;;;5.78;3.30;;;;;;;;;;10292587;28;20048;-57
2023/11/08 01:40:06;;;;;;;8.10;3.90;;;;;;;;;;10293005;28;20049;-58
2023/11/08 01:45:05;;;;;;;6.53;2.70;;;;;;;;;;10292024;28;20474;-58
2023/11/08 01:50:04;;;;;;;8.55;3.67;;;;;;;;;;10293169;28;20520;-57
2023/11/08 01:55:02;;;;;;;7.60;3.92;;;;;;;;;;10293904;28;20068;-58
2023/11/08 02:00:04;;;;;;;6.13;3.80;;;;;;;;;;10301030;28;20452;-58
2023/11/08 02:05:09;;;;;;;7.32;3.50;;;;;;;;;;10299687;28;20080;-58
2023/11/08 02:10:08;;;;;;;9.35;3.60;;;;;;;;;;10293459;28;20079;-57
2023/11/08 02:15:11;;;;;;;10.30;5.15;;;;;;;;;;10292495;28;20056;-57
2023/11/08 02:20:10;;;;;;;9.35;3.40;;;;;;;;;;10293160;28;20076;-57
2023/11/08 02:25:11;;;;;;;9.05;4.95;;;;;;;;;;10292483;28;20084;-58
2023/11/08 02:30:13;;;;;;;8.60;4.20;;;;;;;;;;10293233;28;20080;-58
2023/11/08 02:35:11;;;;;;;7.55;3.55;;;;;;;;;;10293096;28;20467;-58
2023/11/08 02:40:12;;;;;;;7.55;4.22;;;;;;;;;;10298788;28;20522;-59
2023/11/08 02:45:11;;;;;;;9.52;4.55;;;;;;;;;;10300109;28;20068;-57
2023/11/08 02:50:10;;;;;;;8.07;5.38;;;;;;;;;;10307091;28;20081;-57
2023/11/08 02:55:11;;;;;;;7.43;3.72;;;;;;;;;;10298290;28;20071;-57
2023/11/08 03:00:11;;;;;;;8.50;3.85;;;;;;;;;;10299799;28;20061;-57
2023/11/08 03:05:10;;;;;;;8.15;3.78;;;;;;;;;;10298478;28;20084;-58
2023/11/08 03:10:09;;;;;;;9.38;3.95;;;;;;;;;;10299114;28;20079;-57
2023/11/08 03:15:09;;;;;;;10.10;4.43;;;;;;;;;;10299014;28;20084;-58
2023/11/08 03:20:10;;;;;;;10.27;5.22;;;;;;;;;;10298724;28;20181;-58
2023/11/08 03:25:11;;;;;;;10.07;3.95;;;;;;;;;;10298890;28;20084;-58
2023/11/08 03:30:10;;;;;;;7.35;4.13;;;;;;;;;;10298878;28;20087;-58
2023/11/08 03:35:11;;;;;;;9.80;5.97;;;;;;;;;;10299043;28;20108;-58
2023/11/08 03:40:11;;;;;;;8.63;4.30;;;;;;;;;;10298534;28;20084;-57
2023/11/08 03:45:11;;;;;;;8.52;4.82;;;;;;;;;;10298007;28;20155;-58
2023/11/08 03:50:11;;;;;;;11.00;3.70;;;;;;;;;;10298004;28;20076;-55
2023/11/08 03:55:10;;;;;;;7.90;4.20;;;;;;;;;;10297164;28;20084;-58
2023/11/08 04:00:09;;;;;;;9.90;4.55;;;;;;;;;;10297198;28;20193;-58
2023/11/08 04:05:08;;;;;;;10.68;4.35;;;;;;;;;;10297720;28;20631;-57
2023/11/08 04:10:10;;;;;;;11.57;4.45;;;;;;;;;;10296887;28;20072;-56
2023/11/08 04:15:09;;;;;;;10.80;3.35;;;;;;;;;;10296180;28;20107;-54
2023/11/08 04:20:12;;;;;;;13.13;5.05;;;;;;;;;;10296678;28;20346;-57
2023/11/08 04:25:12;;;;;;;11.98;5.25;;;;;;;;;;10296637;28;20072;-55
2023/11/08 04:30:11;;;;;;;14.00;5.13;;;;;;;;;;10296191;28;20068;-57
2023/11/08 04:35:09;;;;;;;9.50;6.40;;;;;;;;;;10297331;28;20079;-56
2023/11/08 04:40:09;;;;;;;10.95;6.43;;;;;;;;;;10296717;28;20083;-58
2023/11/08 04:45:09;;;;;;;20.88;8.45;;;;;;;;;;10296329;28;20064;-58
2023/11/08 04:50:08;;;;;;;7.15;5.45;;;;;;;;;;10296390;28;20095;-57
2023/11/08 04:55:06;;;;;;;11.90;6.97;;;;;;;;;;10295758;28;20083;-57
2023/11/08 05:00:06;;;;;;;14.75;8.35;;;;;;;;;;10294114;28;20091;-57
2023/11/08 05:05:06;;;;;;;13.68;6.68;;;;;;;;;;10294421;28;20913;-54
2023/11/08 05:10:07;;;;;;;10.55;6.22;;;;;;;;;;10280969;28;20076;-58
2023/11/08 05:15:09;;;;;;;11.95;6.55;;;;;;;;;;10293281;28;20090;-57
2023/11/08 05:20:10;;;;;;;13.05;7.40;;;;;;;;;;10287922;28;20084;-57
2023/11/08 05:25:09;;;;;;;11.90;8.32;;;;;;;;;;10288459;28;20087;-61
2023/11/08 05:30:11;;;;;;;13.52;7.70;;;;;;;;;;10284920;28;20487;-56
2023/11/08 05:35:12;;;;;;;11.60;8.35;;;;;;;;;;10291492;28;20156;-58
2023/11/08 05:40:13;;;;;;;20.58;10.43;;;;;;;;;;10296210;28;20435;-58
2023/11/08 05:45:11;;;;;;;12.77;8.27;;;;;;;;;;10293904;28;20072;-57
2023/11/08 05:50:12;;;;;;;12.60;6.55;;;;;;;;;;10293591;28;20084;-57
2023/11/08 05:55:11;;;;;;;10.27;5.38;;;;;;;;;;10282853;28;20156;-53
2023/11/08 06:00:10;;;;;;;11.77;5.13;;;;;;;;;;10291529;28;20103;-54
2023/11/08 06:05:09;;;;;;;13.02;6.43;;;;;;;;;;10282014;28;20076;-57
2023/11/08 06:10:09;;;;;;;25.02;10.07;;;;;;;;;;10281914;28;20059;-59
2023/11/08 06:15:09;;;;;;;19.80;9.93;;;;;;;;;;10282287;28;20562;-55
2023/11/08 06:20:09;;;;;;;15.63;8.23;;;;;;;;;;10301597;28;20476;-56
2023/11/08 06:25:09;;;;;;;13.00;8.75;;;;;;;;;;10293493;28;20083;-56
2023/11/08 06:30:08;;;;;;;11.40;8.35;;;;;;;;;;10288714;28;20091;-56
2023/11/08 06:35:06;;;;;;;13.75;8.50;;;;;;;;;;10289297;28;20505;-57
2023/11/08 06:40:06;;;;;;;11.52;8.70;;;;;;;;;;10292100;28;20083;-57
2023/11/08 06:45:06;;;;;;;13.38;8.30;;;;;;;;;;10295270;28;20072;-58
2023/11/08 06:50:06;;;;;;;16.42;10.00;;;;;;;;;;10293461;28;20076;-56
2023/11/08 06:55:05;;;;;;;14.50;10.25;;;;;;;;;;10297049;28;20079;-58
2023/11/08 07:00:11;;;;;;;13.77;9.05;;;;;;;;;;10295260;28;20072;-58
2023/11/08 07:05:12;;;;;;;13.68;8.40;;;;;;;;;;10290350;28;20080;-57
2023/11/08 07:10:12;;;;;;;19.75;9.45;;;;;;;;;;10292920;28;20079;-54
2023/11/08 07:15:12;;;;;;;15.10;9.35;;;;;;;;;;10286615;28;20076;-57
2023/11/08 07:20:10;;;;;;;16.80;9.40;;;;;;;;;;10287201;28;20490;-58
2023/11/08 07:25:09;;;;;;;20.02;9.75;;;;;;;;;;10291798;28;21098;-56
2023/11/08 07:30:10;;;;;;;13.30;9.75;;;;;;;;;;10293076;28;20091;-57
2023/11/08 07:35:10;;;;;;;18.85;10.15;;;;;;;;;;10291784;28;20569;-57
2023/11/08 07:40:11;;;;;;;25.50;8.60;;;;;;;;;;10298485;28;20091;-60
2023/11/08 07:45:11;;;;;;;25.60;10.57;;;;;;;;;;10297411;28;20072;-59
2023/11/08 07:50:11;;;;;;;28.30;11.25;;;;;;;;;;10298068;28;20080;-59
2023/11/08 07:55:12;;;;;;;11.52;7.85;;;;;;;;;;10292703;28;20072;-58
2023/11/08 08:00:14;;;;;;;14.90;7.70;;;;;;;;;;10292641;28;20080;-58
2023/11/08 08:05:14;;;;;;;13.63;8.35;;;;;;;;;;10295251;28;20068;-56
2023/11/08 08:10:13;;;;;;;22.42;8.25;;;;;;;;;;10296232;28;20940;-58
2023/11/08 08:15:11;;;;;;;19.95;8.75;;;;;;;;;;10293176;28;20060;-57
2023/11/08 08:20:11;;;;;;;13.93;8.25;;;;;;;;;;10297312;28;20082;-56
2023/11/08 08:25:11;;;;;;;11.82;6.80;;;;;;;;;;10297518;28;20421;-57
2023/11/08 08:30:13;;;;;;;13.57;8.30;;;;;;;;;;10292412;28;20080;-59
2023/11/08 08:35:12;;;;;;;11.30;7.00;;;;;;;;;;10293531;28;20091;-51
2023/11/08 08:40:12;;;;;;;15.32;7.65;;;;;;;;;;10285865;28;20073;-57
2023/11/08 08:45:10;;;;;;;9.13;6.43;;;;;;;;;;10290357;28;20084;-58
2023/11/08 08:50:11;;;;;;;11.40;6.88;;;;;;;;;;10287031;28;20068;-57
2023/11/08 08:55:10;;;;;;;14.05;6.15;;;;;;;;;;10289913;28;20076;-57
2023/11/08 09:00:11;;;;;;;12.43;6.32;;;;;;;;;;10292705;28;20183;-57
2023/11/08 09:05:10;;;;;;;12.15;5.97;;;;;;;;;;10290371;28;20081;-57
2023/11/08 09:10:09;;;;;;;16.17;6.88;;;;;;;;;;10287245;28;20119;-56
2023/11/08 09:15:10;;;;;;;17.80;9.75;;;;;;;;;;10292527;28;20088;-58
2023/11/08 09:20:11;;;;;;;14.90;9.68;;;;;;;;;;10293417;28;20080;-56
2023/11/08 09:25:10;;;;;;;17.25;8.13;;;;;;;;;;10288582;28;20084;-58
2023/11/08 09:30:08;;;;;;;16.08;6.20;;;;;;;;;;10285584;28;20489;-57
2023/11/08 09:35:07;;;;;;;13.75;5.80;;;;;;;;;;10287387;28;20083;-57
2023/11/08 09:40:10;;;;;;;14.13;5.20;;;;;;;;;;10286178;28;20524;-53
2023/11/08 09:45:11;;;;;;;22.63;11.88;;;;;;;;;;10287340;28;20102;-56
2023/11/08 09:50:11;;;;;;;27.85;14.00;;;;;;;;;;10285576;28;20079;-58
2023/11/08 09:55:11;;;;;;;27.45;14.07;;;;;;;;;;10284088;28;20064;-56
2023/11/08 10:00:14;;;;;;;16.00;7.90;;;;;;;;;;10280868;28;20069;-58
2023/11/08 10:05:12;;;;;;;15.02;7.00;;;;;;;;;;10281234;28;20467;-59
2023/11/08 10:10:12;;;;;;;14.38;10.93;;;;;;;;;;10284579;28;20076;-55
2023/11/08 10:15:11;;;;;;;15.25;8.77;;;;;;;;;;10291791;28;20087;-57
2023/11/08 10:20:11;;;;;;;32.97;9.10;;;;;;;;;;10289771;28;20663;-57
2023/11/08 10:25:11;;;;;;;13.35;8.82;;;;;;;;;;10287751;28;20076;-57
2023/11/08 10:30:16;;;;;;;10.68;8.50;;;;;;;;;;10287083;28;20526;-57
2023/11/08 10:35:15;;;;;;;14.82;7.65;;;;;;;;;;10290854;28;20080;-54
2023/11/08 10:40:14;;;;;;;13.77;8.50;;;;;;;;;;10287059;28;20072;-58
2023/11/08 10:45:13;;;;;;;15.65;8.30;;;;;;;;;;10288368;28;20525;-54
2023/11/08 10:50:15;;;;;;;13.32;8.35;;;;;;;;;;10285395;28;20086;-56
2023/11/08 10:55:13;;;;;;;13.52;8.43;;;;;;;;;;10285709;28;20111;-52
2023/11/08 11:00:12;;;;;;;12.27;7.80;;;;;;;;;;10286745;28;20080;-58
2023/11/08 11:05:13;;;;;;;13.95;8.02;;;;;;;;;;10289498;28;20075;-58
2023/11/08 11:10:13;;;;;;;14.00;8.70;;;;;;;;;;10292024;28;20068;-57
2023/11/08 11:15:15;;;;;;;11.95;8.35;;;;;;;;;;10291298;28;20064;-59
2023/11/08 11:20:16;;;;;;;14.98;8.70;;;;;;;;;;10292022;28;20569;-57
2023/11/08 11:25:35;;;;;;;15.43;8.63;;;;;;;;;;10293999;28;20071;-57
2023/11/08 11:30:33;;;;;;;16.27;9.77;;;;;;;;;;10290000;28;20571;-55
2023/11/08 11:35:47;;;;;;;16.90;10.35;;;;;;;;;;10295103;28;20079;-57
2023/11/08 11:40:48;;;;;;;16.27;10.52;;;;;;;;;;10280488;28;20081;-56
2023/11/08 11:45:52;;;;;;;16.00;9.65;;;;;;;;;;10293760;28;20079;-58
2023/11/08 11:50:50;;;;;;;14.73;10.02;;;;;;;;;;10293771;28;20517;-59
2023/11/08 11:55:49;;;;;;;21.60;13.23;;;;;;;;;;10297131;28;20060;-58
2023/11/08 12:00:48;;;;;;;24.05;14.82;;;;;;;;;;10291966;28;20477;-58
2023/11/08 12:05:46;;;;;;;16.33;12.75;;;;;;;;;;10294236;28;20071;-55
2023/11/08 12:10:45;;;;;;;20.73;13.05;;;;;;;;;;10290076;28;20470;-58
2023/11/08 12:15:44;;;;;;;13.88;12.23;;;;;;;;;;10287667;28;20073;-58
2023/11/08 12:20:43;;;;;;;16.08;12.38;;;;;;;;;;10288074;28;20083;-58
2023/11/08 12:25:41;;;;;;;16.83;11.65;;;;;;;;;;10290532;28;20079;-57
2023/11/08 12:30:39;;;;;;;18.05;13.80;;;;;;;;;;10290088;28;20084;-58
2023/11/08 12:35:40;;;;;;;18.05;12.75;;;;;;;;;;10293385;28;20072;-59
2023/11/08 12:40:39;;;;;;;18.42;14.05;;;;;;;;;;10293050;28;20075;-58
2023/11/08 12:45:38;;;;;;;17.65;13.88;;;;;;;;;;10293406;28;20060;-59
2023/11/08 12:50:59;;;;;;;19.80;14.65;;;;;;;;;;10292481;28;20080;-58
2023/11/08 12:55:58;;;;;;;20.55;17.15;;;;;;;;;;10293010;28;20455;-57
2023/11/08 13:00:57;;;;;;;18.05;13.88;;;;;;;;;;10292318;28;20089;-58
2023/11/08 13:05:55;;;;;;;16.00;13.60;;;;;;;;;;10294340;28;20540;-58
2023/11/08 13:10:58;;;;;;;17.05;14.98;;;;;;;;;;10291575;28;20075;-58
2023/11/08 13:15:57;;;;;;;17.60;14.80;;;;;;;;;;10291641;28;20475;-59
2023/11/08 13:20:55;;;;;;;38.00;33.92;;;;;;;;;;10290317;28;20083;-58
2023/11/08 13:25:55;;;;;;;23.65;19.13;;;;;;;;;;10289565;28;20497;-59
2023/11/08 13:30:53;;;;;;;18.88;15.65;;;;;;;;;;10289963;28;20078;-59
2023/11/08 13:35:52;;;;;;;22.85;16.58;;;;;;;;;;10290219;28;20091;-59
2023/11/08 13:40:50;;;;;;;17.73;16.05;;;;;;;;;;10289313;28;20075;-55
2023/11/08 13:45:50;;;;;;;24.65;22.23;;;;;;;;;;10289521;28;20589;-58
2023/11/08 13:50:48;;;;;;;18.40;16.30;;;;;;;;;;10288843;28;20076;-55
2023/11/08 13:55:46;;;;;;;16.00;14.45;;;;;;;;;;10290183;28;20469;-57
2023/11/08 14:00:45;;;;;;;15.35;12.27;;;;;;;;;;10289838;28;20080;-57
2023/11/08 14:05:44;;;;;;;13.25;10.02;;;;;;;;;;10289600;28;20068;-56
2023/11/08 14:10:43;;;;;;;16.25;12.30;;;;;;;;;;10289314;28;20079;-54
2023/11/08 14:15:42;;;;;;;13.05;11.73;;;;;;;;;;10289635;28;20115;-59
2023/11/08 14:20:40;;;;;;;11.48;9.80;;;;;;;;;;10292925;28;20088;-59
2023/11/08 14:25:40;;;;;;;10.48;9.30;;;;;;;;;;10291003;28;20080;-58
2023/11/08 14:30:38;;;;;;;38.08;29.30;;;;;;;;;;10289685;28;20095;-60
2023/11/08 14:35:36;;;;;;;10.68;8.85;;;;;;;;;;10290875;28;20475;-57
2023/11/08 14:40:35;;;;;;;10.68;7.90;;;;;;;;;;10295647;28;20065;-58
2023/11/08 14:45:35;;;;;;;9.05;7.20;;;;;;;;;;10291542;28;20072;-59
2023/11/08 14:50:33;;;;;;;9.88;7.30;;;;;;;;;;10296941;28;20076;-57
2023/11/08 14:55:32;;;;;;;9.35;6.50;;;;;;;;;;10297396;28;20072;-57
2023/11/08 15:00:30;;;;;;;8.98;6.80;;;;;;;;;;10291935;28;20075;-55
2023/11/08 15:05:30;;;;;;;9.23;7.72;;;;;;;;;;10296477;28;20099;-53
2023/11/08 15:10:28;;;;;;;8.32;6.07;;;;;;;;;;10296907;28;20088;-55
2023/11/08 15:15:26;;;;;;;7.45;6.55;;;;;;;;;;10296097;28;20076;-55
2023/11/08 15:20:25;;;;;;;35.60;26.63;;;;;;;;;;10296721;28;20482;-53
2023/11/08 15:25:25;;;;;;;18.98;15.55;;;;;;;;;;10293936;28;20072;-52
2023/11/08 15:30:23;;;;;;;11.85;7.65;;;;;;;;;;10291618;28;20068;-57
2023/11/08 15:35:22;;;;;;;7.32;6.57;;;;;;;;;;10294592;28;20076;-53
2023/11/08 15:40:20;;;;;;;8.50;6.57;;;;;;;;;;10295075;28;20560;-57
2023/11/08 15:45:20;;;;;;;11.25;8.75;;;;;;;;;;10294846;28;20607;-57
2023/11/08 15:50:18;;;;;;;8.15;6.43;;;;;;;;;;10293904;28;20107;-55
2023/11/08 15:55:17;;;;;;;10.85;9.85;;;;;;;;;;10294268;28;20083;-52
2023/11/08 16:00:15;;;;;;;8.35;7.35;;;;;;;;;;10295375;28;20064;-53
2023/11/08 16:05:15;;;;;;;9.32;6.28;;;;;;;;;;10295439;28;20099;-56
2023/11/08 16:10:13;;;;;;;10.70;7.65;;;;;;;;;;10295405;28;20091;-54
2023/11/08 16:15:11;;;;;;;9.23;7.95;;;;;;;;;;10294255;28;20873;-56
2023/11/08 16:20:10;;;;;;;8.68;7.43;;;;;;;;;;10289572;28;20473;-52
2023/11/08 16:25:11;;;;;;;10.18;8.27;;;;;;;;;;10288481;28;20075;-57
2023/11/08 16:30:12;;;;;;;9.55;8.40;;;;;;;;;;10291134;28;20506;-55
2023/11/08 16:35:10;;;;;;;11.77;10.07;;;;;;;;;;10290173;28;20073;-56
2023/11/08 16:40:11;;;;;;;11.07;9.82;;;;;;;;;;10292479;28;20068;-52
2023/11/08 16:45:10;;;;;;;11.60;9.60;;;;;;;;;;10293772;28;20068;-54
2023/11/08 16:50:10;;;;;;;15.20;13.63;;;;;;;;;;10292669;28;20084;-56
2023/11/08 16:55:08;;;;;;;12.23;10.65;;;;;;;;;;10293691;28;20529;-57
2023/11/08 17:00:12;;;;;;;12.15;9.75;;;;;;;;;;10293391;28;20088;-57
2023/11/08 17:05:11;;;;;;;11.63;9.07;;;;;;;;;;10293260;28;20114;-54
2023/11/08 17:10:11;;;;;;;11.35;9.25;;;;;;;;;;10291656;28;20076;-54
2023/11/08 17:15:13;;;;;;;8.95;7.25;;;;;;;;;;10293326;28;20079;-57
2023/11/08 17:20:12;;;;;;;7.03;6.32;;;;;;;;;;10292089;28;20481;-57
2023/11/08 17:25:10;;;;;;;8.57;5.70;;;;;;;;;;10292003;28;20069;-56
2023/11/08 17:30:09;;;;;;;6.78;5.80;;;;;;;;;;10291988;28;20103;-57
2023/11/08 17:35:09;;;;;;;7.03;6.32;;;;;;;;;;10291508;28;20076;-58
2023/11/08 17:40:08;;;;;;;11.02;9.93;;;;;;;;;;10291946;28;20080;-57
2023/11/08 17:45:08;;;;;;;11.85;10.45;;;;;;;;;;10291047;28;20076;-56
2023/11/08 17:50:07;;;;;;;10.38;9.35;;;;;;;;;;10287844;28;20099;-57
2023/11/08 17:55:07;;;;;;;16.67;15.00;;;;;;;;;;10291216;28;20080;-56
2023/11/08 18:00:06;;;;;;;6.22;5.63;;;;;;;;;;10286322;28;20077;-57
2023/11/08 18:05:06;;;;;;;6.95;5.65;;;;;;;;;;10286802;28;20080;-57
2023/11/08 18:10:07;;;;;;;6.30;5.80;;;;;;;;;;10290632;28;20076;-57
2023/11/08 18:15:06;;;;;;;8.50;7.68;;;;;;;;;;10284348;28;20080;-57
2023/11/08 18:20:06;;;;;;;7.57;6.00;;;;;;;;;;10298991;28;20088;-57
2023/11/08 18:25:06;;;;;;;6.80;5.70;;;;;;;;;;10294863;28;20076;-57
2023/11/08 18:30:08;;;;;;;7.63;6.93;;;;;;;;;;10298299;28;20073;-53
2023/11/08 18:35:06;;;;;;;6.28;5.65;;;;;;;;;;10294179;28;20111;-57
2023/11/08 18:40:06;;;;;;;6.40;5.50;;;;;;;;;;10294123;28;20068;-57
2023/11/08 18:45:06;;;;;;;6.15;4.97;;;;;;;;;;10298420;28;20447;-57
2023/11/08 18:50:08;;;;;;;6.07;5.47;;;;;;;;;;10292996;28;20068;-55
2023/11/08 18:55:07;;;;;;;6.00;5.40;;;;;;;;;;10297968;28;20506;-57
2023/11/08 19:00:06;;;;;;;8.50;7.55;;;;;;;;;;10293074;28;20080;-55
2023/11/08 19:05:09;;;;;;;18.33;15.88;;;;;;;;;;10292947;28;20554;-55
2023/11/08 19:10:08;;;;;;;15.93;12.70;;;;;;;;;;10293316;28;20068;-58
2023/11/08 19:15:07;;;;;;;17.20;14.85;;;;;;;;;;10292846;28;20076;-57
2023/11/08 19:20:07;;;;;;;17.48;14.23;;;;;;;;;;10297741;28;20080;-58
2023/11/08 19:25:07;;;;;;;9.00;6.32;;;;;;;;;;10296037;28;20475;-58
2023/11/08 19:30:08;;;;;;;5.15;4.70;;;;;;;;;;10297210;28;20064;-57
2023/11/08 19:35:08;;;;;;;5.35;4.80;;;;;;;;;;10296496;28;20081;-58
2023/11/08 19:40:10;;;;;;;4.97;4.47;;;;;;;;;;10291050;28;20068;-57
2023/11/08 19:45:10;;;;;;;6.50;5.90;;;;;;;;;;10292121;28;20537;-58
2023/11/08 19:50:09;;;;;;;5.05;4.20;;;;;;;;;;10296292;28;20507;-58
2023/11/08 19:55:09;;;;;;;5.70;5.20;;;;;;;;;;10293717;28;20095;-57
2023/11/08 20:00:10;;;;;;;4.40;4.00;;;;;;;;;;10291549;28;20075;-57
2023/11/08 20:05:09;;;;;;;6.03;3.97;;;;;;;;;;10291473;28;20473;-57
2023/11/08 20:10:12;;;;;;;3.83;3.47;;;;;;;;;;10294828;28;20079;-57
2023/11/08 20:15:10;;;;;;;5.57;3.58;;;;;;;;;;10290898;28;20091;-54
2023/11/08 20:20:10;;;;;;;4.93;3.65;;;;;;;;;;10294703;28;20084;-57
2023/11/08 20:25:10;;;;;;;4.57;3.13;;;;;;;;;;10294930;28;20091;-54
2023/11/08 20:30:09;;;;;;;4.43;3.90;;;;;;;;;;10294549;28;20473;-55
2023/11/08 20:35:10;;;;;;;10.30;7.65;;;;;;;;;;10293836;28;20087;-57
2023/11/08 20:40:12;;;;;;;6.18;4.20;;;;;;;;;;10294941;28;20079;-57
2023/11/08 20:45:11;;;;;;;9.35;8.25;;;;;;;;;;10294045;28;20092;-58
2023/11/08 20:50:10;;;;;;;4.28;3.58;;;;;;;;;;10294007;28;20100;-57
2023/11/08 20:55:11;;;;;;;4.53;3.75;;;;;;;;;;10294094;28;20510;-56
2023/11/08 21:00:12;;;;;;;7.43;3.83;;;;;;;;;;10292539;28;20076;-54
2023/11/08 21:05:13;;;;;;;5.00;2.65;;;;;;;;;;10299398;28;20076;-52
2023/11/08 21:10:13;;;;;;;2.72;2.53;;;;;;;;;;10293172;28;20069;-55
2023/11/08 21:15:12;;;;;;;3.22;2.95;;;;;;;;;;10292266;28;20079;-53
2023/11/08 21:20:11;;;;;;;2.83;2.00;;;;;;;;;;10292160;28;20084;-54
2023/11/08 21:25:09;;;;;;;2.72;2.28;;;;;;;;;;10292596;28;20096;-56
2023/11/08 21:30:10;;;;;;;2.35;2.15;;;;;;;;;;10291477;28;20072;-57
2023/11/08 21:35:08;;;;;;;1.98;1.85;;;;;;;;;;10288350;28;20554;-55
2023/11/08 21:40:08;;;;;;;3.40;2.42;;;;;;;;;;10287462;28;20079;-57
2023/11/08 21:45:07;;;;;;;3.22;2.92;;;;;;;;;;10291719;28;20124;-55
2023/11/08 21:50:08;;;;;;;4.72;2.63;;;;;;;;;;10285868;28;20076;-56
2023/11/08 21:55:07;;;;;;;2.65;2.05;;;;;;;;;;10287542;28;20080;-56
2023/11/08 22:00:09;;;;;;;2.58;2.38;;;;;;;;;;10286706;28;20517;-52
2023/11/08 22:05:10;;;;;;;2.13;2.00;;;;;;;;;;10286674;28;20091;-55
2023/11/08 22:10:09;;;;;;;2.40;2.20;;;;;;;;;;10292155;28;20091;-54
2023/11/08 22:15:09;;;;;;;2.85;2.17;;;;;;;;;;10287073;28;20080;-57
2023/11/08 22:20:09;;;;;;;2.92;2.45;;;;;;;;;;10291719;28;20091;-54
2023/11/08 22:25:09;;;;;;;2.30;2.10;;;;;;;;;;10286898;28;20072;-54
2023/11/08 22:30:08;;;;;;;2.67;2.13;;;;;;;;;;10286865;28;20068;-52
2023/11/08 22:35:07;;;;;;;2.33;2.13;;;;;;;;;;10291145;28;20079;-55
2023/11/08 22:40:06;;;;;;;2.65;2.42;;;;;;;;;;10283911;28;20061;-56
2023/11/08 22:45:06;;;;;;;5.30;2.00;;;;;;;;;;10280373;28;20447;-53
2023/11/08 22:50:05;;;;;;;2.78;2.58;;;;;;;;;;10274253;28;20068;-53
2023/11/08 22:55:04;;;;;;;2.30;2.10;;;;;;;;;;10283900;28;20073;-51
2023/11/08 23:00:02;;;;;;;2.42;2.22;;;;;;;;;;10294929;28;20077;-54
2023/11/08 23:05:02;;;;;;;2.67;2.47;;;;;;;;;;10297323;28;20073;-52
2023/11/08 23:10:00;;;;;;;3.00;2.40;;;;;;;;;;10299648;28;20048;-53
2023/11/08 23:14:59;;;;;;;2.90;2.60;;;;;;;;;;10299647;28;20087;-52
2023/11/08 23:20:13;;;;;;;2.78;2.58;;;;;;;;;;10299807;28;20083;-49
2023/11/08 23:25:12;;;;;;;3.65;3.35;;;;;;;;;;10283599;28;20072;-50
2023/11/08 23:30:12;;;;;;;2.38;2.17;;;;;;;;;;10298996;28;20459;-53
2023/11/08 23:35:12;;;;;;;3.17;2.88;;;;;;;;;;10298840;28;20076;-56
2023/11/08 23:40:11;;;;;;;2.60;2.40;;;;;;;;;;10298599;28;20448;-56
2023/11/08 23:45:10;;;;;;;3.10;2.83;;;;;;;;;;10298043;28;20091;-54
2023/11/08 23:50:08;;;;;;;2.88;2.53;;;;;;;;;;10298564;28;20080;-54
2023/11/08 23:55:09;;;;;;;3.22;2.60;;;;;;;;;;10298255;28;20087;-53
